Potsdam Sor, Germany

9:53 AM CET on January 27, 2015 (GMT +0100)
Potsdam, Babelsberg | Change Station
CLOSE
Current Station
Personal Weather Station
Location: Potsdam, BRANDENBURG
Elevation: 121 ft
Nearby Weather Stations

Elev 121 ft 52.39 °N, 13.10 °E | Updated 6 seconds ago

Light Rain
Light Rain
39.0 °F
Feels Like 39 °F
N
0.2
Wind Variable Wind from SW
Gusts 2.5 mph

Today
High -- | Low -- °F
--% Chance of Precip.
Yesterday
High -- | Low -- °F
Precip. -- in
7:56 AM 4:44 PM
First Quarter, 52% visible
Pressure 29.89 in
Visibility 6.2 miles
Clouds Mostly Cloudy 1000 ft
Mostly Cloudy 2000 ft
Windchill 39 °F
Dew Point 37 °F
Humidity 92%
Rainfall 0.00 in
Snow Depth Not available.
UV 0.0 out of 12
Pollen Not available.
Air Quality Not available.
Flu Activity Not available.
METAR EDDT 270850Z 28008KT 9999 -RA BKN010 BKN020 03/02 Q1012 NOSIG

More Conditions Fewer Conditions

Pressure 29.89 in
Visibility 6.2 miles
Clouds Mostly Cloudy 1000 ft
Mostly Cloudy 2000 ft
Windchill 39 °F
Dew Point 37 °F
Humidity 92%
Rainfall 0.00 in
Snow Depth Not available.
UV 0.0 out of 12
Pollen Not available.
Air Quality Not available.
Flu Activity Not available.
METAR EDDT 270850Z 28008KT 9999 -RA BKN010 BKN020 03/02 Q1012 NOSIG

More Conditions Fewer Conditions

10-Day Weather Forecast

Almanac

Astronomy

Jan. 27, 2015 Rise Set
Actual Time
Civil Twilight
Nautical Twilight
Astronomical Twilight
Moon
Length of Visible Light
Length of Day
Tomorrow will be .
, % of the Moon is Illuminated

Today's Extremes

Country Highs Country Lows

Community

WunderPhotos

Upload Photos

1,790,555 photos uploaded!

WunderBlogs® & News

Nearby

Air Quality

  Air Quality AQ Index Pollutant
Not available.

Snow Depth

Station Depth Elevation

Earthquake Activity

City Distance Mag. Time & Date
Minimum magnitude displayed is 2.5.

Coastal Water Temperatures

Place Temperature

Nearby Weather Stations